createdAt,value
2022-12-03T00:24:37.510Z,71.30
2022-12-03T00:30:13.797Z,70.80
2022-12-03T00:32:40.322Z,70.66
2022-12-03T00:35:07.137Z,71.08
2022-12-03T00:37:35.306Z,70.92
2022-12-03T00:40:04.010Z,70.99
2022-12-03T00:42:30.509Z,70.85
2022-12-03T00:44:57.111Z,70.63
2022-12-03T00:47:23.701Z,70.88
2022-12-03T00:49:50.370Z,71.53
2022-12-03T00:52:16.938Z,71.22
2022-12-03T00:54:43.428Z,70.94
2022-12-03T00:57:12.824Z,70.94
2022-12-03T00:59:39.360Z,70.84
2022-12-03T01:02:05.955Z,70.60
2022-12-03T01:04:34.236Z,70.47
2022-12-03T01:07:01.022Z,70.53
2022-12-03T01:09:27.645Z,70.48
2022-12-03T01:11:54.234Z,70.16
2022-12-03T01:14:20.893Z,69.70
2022-12-03T01:16:48.155Z,69.85
2022-12-03T01:19:16.099Z,69.50
2022-12-03T01:21:49.031Z,70.12
2022-12-03T01:24:16.358Z,70.50
2022-12-03T01:26:43.022Z,69.79
2022-12-03T01:29:09.686Z,69.74
2022-12-03T01:31:54.761Z,69.95
2022-12-03T01:34:21.413Z,69.97
2022-12-03T01:36:48.017Z,69.99
2022-12-03T01:39:17.933Z,70.37
2022-12-03T01:41:45.208Z,70.15
2022-12-03T01:44:28.447Z,70.43
2022-12-03T01:46:57.161Z,70.59
2022-12-03T01:49:32.592Z,71.12
2022-12-03T01:52:00.222Z,70.29
2022-12-03T01:54:38.751Z,69.50
2022-12-03T01:57:16.055Z,69.45
2022-12-03T01:59:42.783Z,69.42
2022-12-03T02:02:22.689Z,69.75
2022-12-03T02:04:49.427Z,69.70
2022-12-03T02:07:29.330Z,69.74
2022-12-03T02:09:57.940Z,69.84
2022-12-03T02:12:34.411Z,69.78
2022-12-03T02:15:01.721Z,69.64
2022-12-03T02:17:28.634Z,69.40
2022-12-03T02:19:56.287Z,69.32
2022-12-03T02:22:55.283Z,69.51
2022-12-03T02:25:29.261Z,69.69
2022-12-03T02:27:56.408Z,69.71
2022-12-03T02:30:26.523Z,69.72
2022-12-03T02:32:54.628Z,69.59
2022-12-03T02:35:29.397Z,69.97
2022-12-03T02:38:22.370Z,69.52
2022-12-03T02:40:52.775Z,69.63
2022-12-03T02:43:20.624Z,70.34
2022-12-03T02:45:50.737Z,69.99
2022-12-03T02:48:25.420Z,69.79
2022-12-03T02:50:54.890Z,69.56
2022-12-03T02:53:26.554Z,69.81
2022-12-03T02:55:56.131Z,69.15
2022-12-03T02:58:24.173Z,69.01
2022-12-03T03:00:53.082Z,69.81
2022-12-03T03:03:21.059Z,69.76
2022-12-03T03:05:51.762Z,69.53
2022-12-03T03:08:18.955Z,69.50
2022-12-03T03:10:47.114Z,70.01
2022-12-03T03:13:15.757Z,69.30
2022-12-03T03:15:42.924Z,69.59
2022-12-03T03:18:11.732Z,69.52
2022-12-03T03:20:39.185Z,69.32
2022-12-03T03:23:17.926Z,70.41
2022-12-03T03:25:49.764Z,69.86
2022-12-03T03:28:16.924Z,69.83
2022-12-03T03:30:44.387Z,69.92
2022-12-03T03:33:13.335Z,69.55
2022-12-03T03:35:43.009Z,69.84
2022-12-03T03:38:10.629Z,69.17
2022-12-03T03:40:38.519Z,69.16
2022-12-03T03:43:06.684Z,69.41
2022-12-03T03:45:33.626Z,69.46
2022-12-03T03:48:00.969Z,69.00
2022-12-03T03:50:30.976Z,68.63
2022-12-03T03:53:08.354Z,68.50
2022-12-03T03:55:35.029Z,68.54
2022-12-03T03:58:01.692Z,68.85
2022-12-03T04:00:28.419Z,69.54
2022-12-03T04:02:57.349Z,68.80
2022-12-03T04:05:25.062Z,68.20
2022-12-03T04:07:52.046Z,68.29
2022-12-03T04:10:37.150Z,68.20
2022-12-03T04:13:04.793Z,68.59
2022-12-03T04:15:31.401Z,68.13
2022-12-03T04:18:16.630Z,67.95
2022-12-03T04:20:43.300Z,67.64
2022-12-03T04:23:10.043Z,67.94
2022-12-03T04:26:11.861Z,67.64
2022-12-03T04:28:50.305Z,68.62
2022-12-03T04:31:35.555Z,68.15
2022-12-03T04:34:20.877Z,67.04
2022-12-03T04:36:47.967Z,66.95
2022-12-03T04:39:14.525Z,66.63
2022-12-03T04:41:41.146Z,66.55
2022-12-03T04:44:33.750Z,67.18
2022-12-03T04:47:01.280Z,66.65
2022-12-03T04:49:27.872Z,66.47
2022-12-03T04:51:54.427Z,65.87
2022-12-03T04:54:23.696Z,65.87
2022-12-03T04:56:50.303Z,66.57
2022-12-03T04:59:16.931Z,66.41
2022-12-03T05:01:44.175Z,67.10
2022-12-03T05:04:11.502Z,67.31
2022-12-03T05:06:38.212Z,66.50
2022-12-03T05:09:04.842Z,66.42
2022-12-03T05:11:31.763Z,66.42
2022-12-03T05:13:58.456Z,66.54
2022-12-03T05:16:25.176Z,65.32
2022-12-03T05:18:51.796Z,65.23
2022-12-03T05:21:18.493Z,65.46
2022-12-03T05:23:45.157Z,65.67
2022-12-03T05:26:12.027Z,66.08
2022-12-03T05:28:38.570Z,65.76
2022-12-03T05:31:05.262Z,66.34
2022-12-03T05:33:32.197Z,66.51
2022-12-03T05:35:58.876Z,66.35
2022-12-03T05:38:25.513Z,66.81
2022-12-03T05:40:52.092Z,66.09
2022-12-03T05:43:18.737Z,66.39
2022-12-03T05:45:48.669Z,66.68
2022-12-03T05:48:16.530Z,67.05
2022-12-03T05:50:44.887Z,66.71
2022-12-03T05:53:12.072Z,66.02
2022-12-03T05:55:39.014Z,65.56
2022-12-03T05:58:05.913Z,65.55
2022-12-03T06:00:42.334Z,65.46
2022-12-03T06:03:10.755Z,65.64
2022-12-03T06:05:37.552Z,66.03
2022-12-03T06:08:04.547Z,66.39
2022-12-03T06:10:31.332Z,66.67
2022-12-03T06:12:58.152Z,66.22
2022-12-03T06:15:24.706Z,67.10
2022-12-03T06:17:51.330Z,66.97
2022-12-03T06:20:19.710Z,66.36
2022-12-03T06:22:46.943Z,66.72
2022-12-03T06:25:13.986Z,65.72
2022-12-03T06:27:40.582Z,67.11
2022-12-03T06:30:08.874Z,66.93
2022-12-03T06:32:35.867Z,66.80
2022-12-03T06:35:02.741Z,66.60
2022-12-03T06:37:29.355Z,67.06
2022-12-03T07:03:29.262Z,67.46
2022-12-03T07:05:55.750Z,67.45
2022-12-03T07:08:22.182Z,66.99
2022-12-03T07:10:48.654Z,66.55
2022-12-03T07:13:15.097Z,66.63
2022-12-03T07:15:41.646Z,66.85
2022-12-03T07:18:08.141Z,66.26
2022-12-03T07:20:34.585Z,66.29
2022-12-03T07:23:01.078Z,65.30
2022-12-03T07:25:27.695Z,65.65
2022-12-03T07:27:54.262Z,65.63
2022-12-03T07:30:21.394Z,65.69
2022-12-03T07:32:47.924Z,65.35
2022-12-03T07:35:14.461Z,65.46
2022-12-03T07:37:40.928Z,65.03
2022-12-03T07:40:08.049Z,64.71
2022-12-03T07:42:34.460Z,64.54
2022-12-03T07:45:00.893Z,65.23
2022-12-03T07:47:27.408Z,65.12
2022-12-03T07:49:53.866Z,65.02
2022-12-03T07:52:20.422Z,64.08
2022-12-03T07:54:46.885Z,65.27
2022-12-03T07:57:13.347Z,65.13
2022-12-03T07:59:39.833Z,65.43
2022-12-03T08:02:06.684Z,65.33
2022-12-03T08:04:33.192Z,65.70
2022-12-03T08:06:59.639Z,65.29
2022-12-03T08:09:26.534Z,65.57
2022-12-03T08:11:53.630Z,65.85
2022-12-03T08:14:20.657Z,65.44
2022-12-03T08:16:48.307Z,65.70
2022-12-03T08:19:17.115Z,65.84
2022-12-03T08:21:44.515Z,65.61
2022-12-03T08:24:15.316Z,65.08
2022-12-03T08:26:44.274Z,65.83
2022-12-03T08:29:12.763Z,65.93
2022-12-03T08:31:39.641Z,65.45
2022-12-03T08:34:18.674Z,65.64
2022-12-03T08:36:46.189Z,64.78
2022-12-03T08:39:37.704Z,65.19
2022-12-03T08:42:44.010Z,65.02
2022-12-03T08:45:40.052Z,65.35
2022-12-03T08:48:18.950Z,65.84
2022-12-03T08:50:45.948Z,65.76
2022-12-03T08:53:36.657Z,66.10
2022-12-03T08:56:20.837Z,65.84
2022-12-03T08:58:56.075Z,65.54
2022-12-03T09:01:31.742Z,66.04
2022-12-03T09:04:42.469Z,66.31
2022-12-03T09:07:09.014Z,66.28
2022-12-03T09:09:35.580Z,66.17
2022-12-03T09:23:45.122Z,65.46
2022-12-03T09:26:11.534Z,64.97
2022-12-03T09:28:38.056Z,64.30
2022-12-03T09:31:04.636Z,64.34
2022-12-03T09:33:32.457Z,64.32
2022-12-03T09:35:59.550Z,63.68
2022-12-03T09:38:26.589Z,63.29
2022-12-03T09:40:54.009Z,63.50
2022-12-03T09:43:21.772Z,64.11
2022-12-03T09:45:49.657Z,63.43
2022-12-03T09:48:20.712Z,62.93
2022-12-03T09:50:48.151Z,62.88
2022-12-03T09:53:19.280Z,63.11
2022-12-03T09:55:49.316Z,63.71
2022-12-03T09:58:18.953Z,63.07
2022-12-03T10:00:51.675Z,62.75
2022-12-03T10:03:26.531Z,62.49
2022-12-03T10:05:56.256Z,62.89
2022-12-03T10:08:26.088Z,62.91
2022-12-03T10:10:59.257Z,62.80
2022-12-03T10:13:29.911Z,61.87
2022-12-03T10:15:59.138Z,61.99
2022-12-03T10:18:36.947Z,62.60
2022-12-03T10:21:20.401Z,63.26
2022-12-03T10:23:50.795Z,63.10
2022-12-03T10:26:40.864Z,63.03
2022-12-03T10:29:14.954Z,62.84
2022-12-03T10:31:41.480Z,62.68
2022-12-03T10:34:09.573Z,63.01
2022-12-03T10:36:37.004Z,62.71
2022-12-03T10:39:15.008Z,62.64
2022-12-03T10:41:44.243Z,62.22
2022-12-03T10:44:30.464Z,62.06
2022-12-03T11:09:01.409Z,61.33
2022-12-03T11:11:31.499Z,61.92
2022-12-03T11:14:03.425Z,61.98
2022-12-03T11:16:39.650Z,60.43
2022-12-03T11:19:12.425Z,61.31
2022-12-03T11:22:06.828Z,60.96
2022-12-03T11:24:38.082Z,60.81
2022-12-03T11:27:04.521Z,61.63
2022-12-03T11:29:54.671Z,61.58
2022-12-03T11:32:42.565Z,61.76
2022-12-03T11:35:35.844Z,60.34
2022-12-03T11:38:37.294Z,60.54
2022-12-03T11:41:15.503Z,60.25
2022-12-03T11:43:57.158Z,60.79
2022-12-03T11:46:36.135Z,60.72
2022-12-03T11:49:23.105Z,61.68
2022-12-03T11:51:50.184Z,61.72
2022-12-03T11:54:18.904Z,60.49
2022-12-03T11:56:49.462Z,61.19
2022-12-03T11:59:17.206Z,61.65
2022-12-03T12:01:44.993Z,60.88
2022-12-03T12:04:47.023Z,61.57
2022-12-03T12:07:32.736Z,61.59
2022-12-03T12:09:59.177Z,61.09
2022-12-03T12:12:30.207Z,62.31
2022-12-03T12:14:58.502Z,61.98
2022-12-03T12:17:29.175Z,61.76
2022-12-03T12:20:23.619Z,61.49
2022-12-03T12:22:50.632Z,61.84
2022-12-03T12:25:40.295Z,61.64
2022-12-03T12:28:07.512Z,61.46
2022-12-03T12:30:34.801Z,60.90
2022-12-03T12:33:07.443Z,61.25
2022-12-03T12:35:33.939Z,60.58
2022-12-03T12:38:12.847Z,60.73
2022-12-03T12:40:42.483Z,61.00
2022-12-03T12:43:15.227Z,60.69
2022-12-03T12:45:44.670Z,60.46
2022-12-03T12:48:21.986Z,61.27
2022-12-03T12:50:52.173Z,61.75
2022-12-03T12:53:26.216Z,62.18
2022-12-03T12:56:11.365Z,62.07
2022-12-03T12:58:37.837Z,61.95
2022-12-03T13:01:07.704Z,61.71
2022-12-03T13:03:38.096Z,61.51
2022-12-03T13:06:05.328Z,62.23
2022-12-03T13:08:40.249Z,61.41
2022-12-03T13:11:27.539Z,61.79
2022-12-03T13:13:54.112Z,61.95
2022-12-03T13:16:30.509Z,61.44
2022-12-03T13:18:59.144Z,61.38
2022-12-03T13:21:33.654Z,61.35
2022-12-03T13:24:00.889Z,61.06
2022-12-03T13:26:39.736Z,61.07
2022-12-03T13:29:18.860Z,61.24
2022-12-03T13:31:58.047Z,60.69
2022-12-03T13:34:33.303Z,60.87
2022-12-03T13:37:01.638Z,61.03
2022-12-03T13:39:31.287Z,60.97
2022-12-03T13:42:39.260Z,60.73
2022-12-03T13:45:15.050Z,61.36
2022-12-03T13:47:51.004Z,61.41
2022-12-03T13:50:40.347Z,62.23
2022-12-03T13:53:24.666Z,61.95
2022-12-03T13:56:11.917Z,61.37
2022-12-03T13:58:38.412Z,62.33
2022-12-03T14:01:04.998Z,62.42
2022-12-03T14:03:31.516Z,62.46
2022-12-03T14:05:57.980Z,62.26
2022-12-03T14:08:24.429Z,62.22
2022-12-03T14:10:55.567Z,62.08
2022-12-03T14:13:25.309Z,62.31
2022-12-03T14:15:51.777Z,62.14
2022-12-03T14:18:18.298Z,62.34
2022-12-03T14:20:44.741Z,62.84
2022-12-03T14:23:11.161Z,62.80
2022-12-03T14:25:37.621Z,62.65
2022-12-03T14:28:08.538Z,62.03
2022-12-03T14:30:35.889Z,62.59
2022-12-03T14:33:02.807Z,62.56
2022-12-03T14:35:29.318Z,62.93
2022-12-03T14:37:55.762Z,62.52
2022-12-03T14:40:22.592Z,63.04
2022-12-03T14:42:49.157Z,62.50
2022-12-03T14:45:15.727Z,62.67
2022-12-03T14:47:42.492Z,62.72
2022-12-03T14:50:14.064Z,62.61
2022-12-03T14:52:40.783Z,62.48
2022-12-03T14:55:15.717Z,63.08
2022-12-03T14:57:42.219Z,62.95
2022-12-03T15:00:09.397Z,63.46
2022-12-03T15:02:39.583Z,63.28
2022-12-03T15:05:11.766Z,62.95
2022-12-03T15:07:39.500Z,63.22
2022-12-03T15:10:07.934Z,62.96
2022-12-03T15:12:34.698Z,62.90
2022-12-03T15:15:01.179Z,63.41
2022-12-03T15:17:31.633Z,63.23
2022-12-03T15:19:58.539Z,63.07
2022-12-03T15:22:25.020Z,62.91
2022-12-03T15:24:51.522Z,63.26
2022-12-03T15:27:17.974Z,63.31
2022-12-03T15:29:44.468Z,63.00
2022-12-03T15:32:11.013Z,63.31
2022-12-03T15:34:37.442Z,63.35
2022-12-03T15:37:03.874Z,63.64
2022-12-03T15:39:30.380Z,63.52
2022-12-03T15:41:56.852Z,63.73
2022-12-03T15:44:23.355Z,63.21
2022-12-03T15:46:49.858Z,63.31
2022-12-03T15:49:16.366Z,63.06
2022-12-03T15:51:42.846Z,63.63
2022-12-03T15:54:09.362Z,63.32
2022-12-03T15:56:37.779Z,63.76
2022-12-03T15:59:04.844Z,63.00
2022-12-03T16:01:31.568Z,63.23
2022-12-03T16:04:01.247Z,62.67
2022-12-03T16:06:27.792Z,62.92
2022-12-03T16:08:54.360Z,63.52
2022-12-03T16:11:20.875Z,63.26
2022-12-03T16:13:47.424Z,62.86
2022-12-03T16:16:14.669Z,62.67
2022-12-03T16:18:41.294Z,62.64
2022-12-03T16:21:07.799Z,63.29
2022-12-03T16:23:34.298Z,62.91
2022-12-03T16:26:00.775Z,63.84
2022-12-03T16:28:27.279Z,63.86
2022-12-03T16:30:53.794Z,62.90
2022-12-03T16:33:27.015Z,63.13
2022-12-03T16:35:54.127Z,63.91
2022-12-03T16:38:20.614Z,63.72
2022-12-03T16:40:47.223Z,63.10
2022-12-03T16:43:13.692Z,63.97
2022-12-03T16:45:46.073Z,63.65
2022-12-03T16:48:12.751Z,63.85
2022-12-03T16:50:40.325Z,64.21
2022-12-03T16:53:06.887Z,63.23
2022-12-03T16:55:47.003Z,63.93
2022-12-03T16:58:13.591Z,63.61
2022-12-03T17:00:40.227Z,63.71
2022-12-03T17:03:06.834Z,63.64
2022-12-03T17:05:33.604Z,63.98
2022-12-03T17:08:07.521Z,63.12
2022-12-03T17:10:36.343Z,63.36
2022-12-03T17:13:10.851Z,62.93
2022-12-03T17:15:37.987Z,63.37
2022-12-03T17:18:06.545Z,63.36
2022-12-03T17:20:34.735Z,63.24
2022-12-03T17:23:01.506Z,62.90
2022-12-03T17:25:28.285Z,63.33
2022-12-03T17:27:54.955Z,61.92
2022-12-03T17:30:21.499Z,62.22
2022-12-03T17:32:53.461Z,62.00
2022-12-03T17:35:20.021Z,61.98
2022-12-03T17:37:46.533Z,61.96
2022-12-03T17:40:15.652Z,61.66
2022-12-03T17:42:44.110Z,61.96
2022-12-03T17:45:10.850Z,62.50
2022-12-03T17:47:37.320Z,62.61
2022-12-03T17:50:04.025Z,62.65
2022-12-03T17:52:30.578Z,63.17
2022-12-03T17:55:19.821Z,63.06
2022-12-03T17:57:43.696Z,63.02
2022-12-03T18:00:10.788Z,63.01
2022-12-03T18:02:37.328Z,63.09
2022-12-03T18:05:04.053Z,63.07
2022-12-03T18:07:30.762Z,63.01
2022-12-03T18:09:57.542Z,62.06
2022-12-03T18:12:24.249Z,62.77
2022-12-03T18:14:50.825Z,63.38
2022-12-03T18:17:17.392Z,62.62
2022-12-03T18:19:43.922Z,62.55
2022-12-03T18:22:10.543Z,62.89
2022-12-03T18:24:37.100Z,62.48
2022-12-03T18:27:03.658Z,62.58
2022-12-03T18:29:30.203Z,62.36
2022-12-03T18:31:56.737Z,62.96
2022-12-03T18:34:23.264Z,62.67
2022-12-03T18:36:50.013Z,62.72
2022-12-03T18:39:49.113Z,62.55
2022-12-03T18:42:18.336Z,62.95
2022-12-03T18:44:49.677Z,63.16
2022-12-03T18:47:21.517Z,63.18
2022-12-03T18:49:48.274Z,62.94
2022-12-03T18:52:18.666Z,63.03
2022-12-03T18:54:45.620Z,63.64
2022-12-03T18:57:12.170Z,63.26
2022-12-03T18:59:39.179Z,62.81
2022-12-03T19:02:07.229Z,62.20
2022-12-03T19:04:34.111Z,62.46
2022-12-03T19:07:00.707Z,62.69
2022-12-03T19:09:27.208Z,62.96
2022-12-03T19:11:53.771Z,63.22
2022-12-03T19:14:20.312Z,63.33
2022-12-03T19:16:50.139Z,62.98
2022-12-03T19:19:17.941Z,63.22
2022-12-03T19:21:44.667Z,62.63
2022-12-03T19:24:26.766Z,62.89
2022-12-03T19:26:55.424Z,63.12
2022-12-03T19:29:23.291Z,63.23
2022-12-03T19:31:52.656Z,63.36
2022-12-03T19:34:19.329Z,63.71
2022-12-03T19:36:46.278Z,63.80
2022-12-03T19:39:14.344Z,63.31
2022-12-03T19:41:52.200Z,64.21
2022-12-03T19:44:19.605Z,63.21
2022-12-03T19:46:50.875Z,63.32
2022-12-03T19:49:21.043Z,62.98
2022-12-03T19:51:47.970Z,63.05
2022-12-03T19:54:14.698Z,63.12
2022-12-03T19:56:44.855Z,63.20
2022-12-03T19:59:14.054Z,63.32
2022-12-03T20:01:40.907Z,63.15
2022-12-03T20:04:07.945Z,63.95
2022-12-03T20:06:39.274Z,63.73
2022-12-03T20:09:09.371Z,63.66
2022-12-03T20:11:48.200Z,63.39
2022-12-03T20:14:16.453Z,63.87
2022-12-03T20:16:47.022Z,63.77
2022-12-03T20:19:15.533Z,63.96
2022-12-03T20:21:48.113Z,64.19
2022-12-03T20:24:17.488Z,63.96
2022-12-03T20:26:48.792Z,64.10
2022-12-03T20:29:15.374Z,63.92
2022-12-03T20:31:44.660Z,64.27
2022-12-03T20:34:11.605Z,63.97
2022-12-03T20:36:40.771Z,63.93
2022-12-03T20:39:08.304Z,64.37
2022-12-03T20:41:39.006Z,64.06
2022-12-03T20:44:09.705Z,64.10
2022-12-03T20:46:36.541Z,63.57
2022-12-03T20:49:03.736Z,64.21
2022-12-03T20:51:33.883Z,64.54
2022-12-03T20:54:03.312Z,63.54
2022-12-03T20:56:36.309Z,64.39
2022-12-03T20:59:08.190Z,64.76
2022-12-03T21:01:36.141Z,64.36
2022-12-03T21:04:04.393Z,64.23
2022-12-03T21:06:31.271Z,64.00
2022-12-03T21:09:01.471Z,64.29
2022-12-03T21:11:31.008Z,64.38
2022-12-03T21:13:58.901Z,64.27
2022-12-03T21:16:59.081Z,64.25
2022-12-03T21:19:17.856Z,64.40
2022-12-03T21:21:44.482Z,64.40
2022-12-03T21:24:11.846Z,63.78
2022-12-03T21:26:38.431Z,64.48
2022-12-03T21:29:04.980Z,63.74
2022-12-03T21:31:32.461Z,64.01
2022-12-03T21:33:59.396Z,64.14
2022-12-03T21:36:26.325Z,63.97
2022-12-03T21:38:55.687Z,64.49
2022-12-03T21:41:22.340Z,63.87
2022-12-03T21:43:52.480Z,63.63
2022-12-03T21:47:09.562Z,63.23
2022-12-03T21:49:05.710Z,63.72
2022-12-03T21:51:32.355Z,63.29
2022-12-03T21:54:04.086Z,64.03
2022-12-03T21:56:33.933Z,63.62
2022-12-03T21:59:00.552Z,63.86
2022-12-03T22:01:27.350Z,63.57
2022-12-03T22:03:56.273Z,63.13
2022-12-03T22:06:23.050Z,63.55
2022-12-03T22:08:50.234Z,63.36
2022-12-03T22:11:23.096Z,63.59
2022-12-03T22:13:50.357Z,63.16
2022-12-03T22:16:21.809Z,63.74
2022-12-03T22:18:49.511Z,63.54
2022-12-03T22:21:19.501Z,63.24
2022-12-03T22:23:46.530Z,63.51
2022-12-03T22:26:16.800Z,63.61
2022-12-03T22:28:44.971Z,63.15
2022-12-03T22:31:15.087Z,63.71
2022-12-03T22:33:42.446Z,63.30
2022-12-03T22:36:19.729Z,63.29
2022-12-03T22:38:47.455Z,63.54
2022-12-03T22:41:14.449Z,63.19
2022-12-03T22:43:43.279Z,63.49
2022-12-03T22:46:12.589Z,63.38
2022-12-03T22:48:40.502Z,63.39
2022-12-03T22:51:13.665Z,63.57
2022-12-03T22:53:40.787Z,64.22
2022-12-03T22:56:07.483Z,63.60
2022-12-03T22:58:37.742Z,63.80
2022-12-03T23:01:04.781Z,63.86
2022-12-03T23:03:31.669Z,64.42
2022-12-03T23:05:59.612Z,63.99
2022-12-03T23:08:26.195Z,64.49
2022-12-03T23:10:53.280Z,64.12
2022-12-03T23:13:23.144Z,64.39
2022-12-03T23:15:52.619Z,64.09
2022-12-03T23:18:22.538Z,64.50
2022-12-03T23:20:52.381Z,64.60
2022-12-03T23:23:28.662Z,64.18
2022-12-03T23:26:09.207Z,64.50
2022-12-03T23:28:41.626Z,64.25
2022-12-03T23:31:21.567Z,64.18
2022-12-03T23:33:48.613Z,64.50
2022-12-03T23:36:19.042Z,64.09
2022-12-03T23:38:45.700Z,64.28
2022-12-03T23:41:15.006Z,63.82
2022-12-03T23:43:42.110Z,64.57
2022-12-03T23:46:12.062Z,64.51
2022-12-03T23:48:38.881Z,64.81
2022-12-03T23:51:11.175Z,64.35
2022-12-03T23:53:38.461Z,64.47
2022-12-03T23:56:11.490Z,64.19
2022-12-03T23:58:38.753Z,64.70
